Green Bank, West Virginia
Current Conditions -  °F | °C
As of 5:44 AM on Monday 26 Jan 2015 (Local Time) from KEKN Reporting Station
Light Rain Light Rain  
Wind Chill: 34°   Ceiling: 3300
Heat Index: 34°   Visibility: 2.5mi
Dew Point: 34°   Wind: 0mph
Humidity: 100%   Direction: NA
Pressure: 29.62"   Gusts: NA
Location:  38.42°N, 79.83°W
Report Text: KEKN 261044Z AUTO 00000KT 2 1/2SM -RA BR SCT003 OVC033 01/01 A2962 RMK AO2 P0002 T00110011 TSNO
Loading
Personal Weather Stations






























Interactive Weather Map New forecast layout! Learn more

10-Day Weather Forecast

Advertisements
Track Severe Weather on mobile